Time;durP1;ratioP1;P1;durP2;ratioP2;P2;SDS_P1;SDS_P2;PMS_P1;PMS_P2;Temp;Humidity;BMP_temperature;BMP_pressure;BME280_temperature;BME280_humidity;BME280_pressure;Samples;Min_cycle;Max_cycle;Signal;HPM_P1;HPM_P2
2023/04/02 00:01:36;;;;;;;0.30;0.30;;;-0.20;99.90;;;;;;5036522;28;20435;-77
2023/04/02 00:04:21;;;;;;;0.20;0.20;;;-0.30;99.90;;;;;;5053842;28;20025;-78
2023/04/02 00:06:53;;;;;;;0.20;0.20;;;-0.30;99.90;;;;;;5054000;28;20043;-77
2023/04/02 00:09:37;;;;;;;0.20;0.20;;;-0.30;99.90;;;;;;5036087;28;20441;-77
2023/04/02 00:12:15;;;;;;;0.20;0.20;;;-0.30;99.90;;;;;;5053598;28;20449;-77
2023/04/02 00:14:46;;;;;;;0.20;0.20;;;-0.30;99.90;;;;;;5053956;28;20025;-77
2023/04/02 00:17:12;;;;;;;0.20;0.20;;;-0.30;99.90;;;;;;5053964;28;20047;-77
2023/04/02 00:20:00;;;;;;;0.20;0.20;;;-0.20;99.90;;;;;;5035511;28;20481;-78
2023/04/02 00:22:30;;;;;;;0.25;0.25;;;-0.10;99.90;;;;;;5053743;28;20035;-78
2023/04/02 00:24:58;;;;;;;0.20;0.20;;;-0.10;99.90;;;;;;5034896;28;20029;-77
2023/04/02 00:27:24;;;;;;;0.20;0.20;;;-0.10;99.90;;;;;;5053801;28;20032;-77
2023/04/02 00:29:52;;;;;;;0.20;0.20;;;-0.20;99.90;;;;;;5053460;28;20075;-77
2023/04/02 00:32:23;;;;;;;0.10;0.10;;;-0.20;99.90;;;;;;5053527;28;20025;-77
2023/04/02 00:34:49;;;;;;;0.10;0.10;;;-0.10;99.90;;;;;;5034815;28;20028;-77
2023/04/02 00:37:26;;;;;;;0.20;0.20;;;-0.20;99.90;;;;;;5053516;28;20036;-77
2023/04/02 00:40:06;;;;;;;0.20;0.20;;;-0.40;99.90;;;;;;5035448;28;20037;-77
2023/04/02 00:42:33;;;;;;;0.25;0.25;;;-0.60;99.90;;;;;;5053258;28;20028;-77
2023/04/02 00:45:00;;;;;;;0.20;0.20;;;-0.60;99.90;;;;;;5052642;28;20033;-78
2023/04/02 00:47:33;;;;;;;0.17;0.17;;;-0.80;99.90;;;;;;5053426;28;20497;-77
2023/04/02 00:50:05;;;;;;;0.20;0.20;;;-0.90;99.90;;;;;;5053260;28;20028;-77
2023/04/02 00:52:32;;;;;;;0.22;0.22;;;-1.00;99.90;;;;;;5053067;28;20359;-77
2023/04/02 00:55:06;;;;;;;0.20;0.20;;;-1.00;99.90;;;;;;5034868;28;20025;-77
2023/04/02 00:57:33;;;;;;;0.25;0.25;;;-1.00;99.90;;;;;;5052989;28;20029;-77
2023/04/02 01:00:17;;;;;;;0.30;0.30;;;-1.10;99.90;;;;;;5035312;28;20025;-77
2023/04/02 01:03:03;;;;;;;0.10;0.10;;;-1.10;99.90;;;;;;5052929;28;20107;-78
2023/04/02 01:05:33;;;;;;;0.22;0.22;;;-1.20;99.90;;;;;;5034465;28;20114;-77
2023/04/02 01:08:06;;;;;;;0.20;0.20;;;-1.30;99.90;;;;;;5052307;28;20025;-77
2023/04/02 01:10:56;;;;;;;0.20;0.20;;;-1.40;99.90;;;;;;5052919;28;20021;-77
2023/04/02 01:13:39;;;;;;;0.22;0.22;;;-1.40;99.90;;;;;;5052854;28;20032;-78
2023/04/02 01:16:31;;;;;;;0.20;0.20;;;-1.10;99.90;;;;;;5052989;28;20032;-77
2023/04/02 01:19:17;;;;;;;0.30;0.30;;;-1.20;99.90;;;;;;5027109;28;20088;-77
2023/04/02 01:21:54;;;;;;;0.20;0.20;;;-1.30;99.90;;;;;;5052295;28;20139;-77
2023/04/02 01:24:23;;;;;;;0.20;0.20;;;-1.20;99.90;;;;;;5052716;28;20086;-77
2023/04/02 01:26:52;;;;;;;0.30;0.30;;;-1.30;99.90;;;;;;5052790;28;20013;-77
2023/04/02 01:29:33;;;;;;;0.20;0.20;;;-1.20;99.90;;;;;;5051932;28;20017;-77
2023/04/02 01:32:05;;;;;;;0.17;0.17;;;-1.20;99.90;;;;;;5052722;28;20104;-78
2023/04/02 01:34:32;;;;;;;0.30;0.30;;;-1.00;99.90;;;;;;5052757;28;20017;-77
2023/04/02 01:37:16;;;;;;;0.20;0.20;;;-0.80;99.90;;;;;;5034975;28;20036;-77
2023/04/02 01:39:54;;;;;;;0.17;0.17;;;-0.80;99.90;;;;;;5052216;28;20036;-77
2023/04/02 01:42:33;;;;;;;0.20;0.20;;;-0.70;99.90;;;;;;5053313;28;20386;-77
2023/04/02 01:45:03;;;;;;;0.20;0.20;;;-0.60;99.90;;;;;;5052296;28;20501;-77
2023/04/02 01:47:30;;;;;;;0.20;0.20;;;-0.60;99.90;;;;;;5052962;28;20601;-78
2023/04/02 01:50:20;;;;;;;0.20;0.20;;;-0.50;99.90;;;;;;5034662;28;20079;-77
2023/04/02 01:52:49;;;;;;;0.20;0.20;;;-0.40;99.90;;;;;;5053096;28;20386;-77
2023/04/02 01:55:20;;;;;;;0.30;0.30;;;-0.30;99.90;;;;;;5035067;28;20600;-77
2023/04/02 01:57:48;;;;;;;0.28;0.28;;;-0.20;99.90;;;;;;5034363;28;20028;-78
2023/04/02 02:00:15;;;;;;;0.20;0.20;;;-0.20;99.90;;;;;;5034600;28;20048;-77
2023/04/02 02:02:44;;;;;;;0.20;0.20;;;-0.20;99.90;;;;;;5051989;28;20036;-77
2023/04/02 02:05:15;;;;;;;0.17;0.17;;;-0.10;99.90;;;;;;5052239;28;20043;-77
2023/04/02 02:07:41;;;;;;;0.20;0.20;;;-0.10;99.90;;;;;;5052467;28;20021;-77
2023/04/02 02:10:15;;;;;;;0.20;0.20;;;-0.10;99.90;;;;;;5052146;28;20401;-77
2023/04/02 02:12:43;;;;;;;0.20;0.20;;;-0.20;99.90;;;;;;5034934;28;20025;-77
2023/04/02 02:15:20;;;;;;;0.10;0.10;;;-0.30;99.90;;;;;;5052512;28;20033;-78
2023/04/02 02:17:47;;;;;;;0.20;0.20;;;-0.40;99.90;;;;;;5036074;28;20031;-77
2023/04/02 02:20:13;;;;;;;0.20;0.20;;;-0.40;99.90;;;;;;5038361;28;20055;-77
2023/04/02 02:22:44;;;;;;;0.20;0.20;;;-0.30;99.90;;;;;;5056024;28;20104;-77
2023/04/02 02:25:20;;;;;;;0.30;0.30;;;-0.40;99.90;;;;;;5055969;28;20033;-78
2023/04/02 02:28:04;;;;;;;0.20;0.20;;;-0.40;99.90;;;;;;5055882;28;20017;-77
2023/04/02 02:30:43;;;;;;;0.10;0.10;;;-0.40;99.90;;;;;;5056164;28;20104;-77
2023/04/02 02:33:22;;;;;;;0.17;0.17;;;-0.50;99.90;;;;;;5055865;28;20470;-78
2023/04/02 02:35:56;;;;;;;0.20;0.20;;;-0.70;99.90;;;;;;5055299;28;20032;-77
2023/04/02 02:38:30;;;;;;;0.20;0.20;;;-0.90;99.90;;;;;;5056149;28;20036;-77
2023/04/02 02:41:23;;;;;;;0.20;0.20;;;-0.90;99.90;;;;;;5055811;28;20024;-77
2023/04/02 02:43:56;;;;;;;0.20;0.20;;;-0.90;99.90;;;;;;5047754;28;20044;-77
2023/04/02 02:46:24;;;;;;;0.20;0.20;;;-1.00;99.90;;;;;;5037596;28;20017;-77
2023/04/02 02:48:52;;;;;;;0.30;0.30;;;-0.90;99.90;;;;;;5055607;28;20025;-77
2023/04/02 02:51:27;;;;;;;0.13;0.13;;;-1.00;99.90;;;;;;5055163;28;20032;-77
2023/04/02 02:53:58;;;;;;;0.20;0.20;;;-1.00;99.90;;;;;;5037379;28;20079;-77
2023/04/02 02:56:25;;;;;;;0.20;0.20;;;-1.00;99.90;;;;;;5037551;28;20520;-78
2023/04/02 02:58:52;;;;;;;0.20;0.20;;;-1.00;99.90;;;;;;5037471;28;20114;-77
2023/04/02 03:01:18;;;;;;;0.20;0.20;;;-0.90;99.90;;;;;;5055401;28;20029;-77
2023/04/02 03:03:46;;;;;;;0.20;0.20;;;-0.80;99.90;;;;;;5037348;28;20091;-77
2023/04/02 03:06:19;;;;;;;0.20;0.20;;;-0.70;99.90;;;;;;5037353;28;20037;-77
2023/04/02 03:08:44;;;;;;;;;;;-0.60;99.90;;;;;;5037203;28;20056;-77
2023/04/02 03:11:27;;;;;;;0.10;0.10;;;-0.60;99.90;;;;;;5055376;28;19905;-77
2023/04/02 03:14:01;;;;;;;0.20;0.20;;;-0.80;99.90;;;;;;5037319;28;20029;-77
2023/04/02 03:16:27;;;;;;;0.20;0.20;;;-0.90;99.90;;;;;;5037374;28;20021;-78
2023/04/02 03:19:01;;;;;;;0.30;0.30;;;-1.00;99.90;;;;;;5054963;28;20438;-77
2023/04/02 03:21:32;;;;;;;0.20;0.20;;;-1.10;99.90;;;;;;5054566;28;20028;-77
2023/04/02 03:24:18;;;;;;;0.20;0.20;;;-1.30;99.90;;;;;;5055406;28;20025;-77
2023/04/02 03:26:57;;;;;;;0.20;0.20;;;-1.20;99.90;;;;;;5037143;28;20036;-77
2023/04/02 03:29:26;;;;;;;0.20;0.20;;;-1.20;99.90;;;;;;5054013;28;20021;-77
2023/04/02 03:32:14;;;;;;;0.22;0.22;;;-1.30;99.90;;;;;;5054861;28;20558;-77
2023/04/02 03:34:45;;;;;;;0.13;0.13;;;-1.30;99.90;;;;;;5055034;28;20028;-77
2023/04/02 03:37:17;;;;;;;0.20;0.20;;;-1.30;99.90;;;;;;5054335;28;20021;-77
2023/04/02 03:39:49;;;;;;;0.20;0.20;;;-1.40;99.90;;;;;;5054777;28;20095;-78
2023/04/02 03:42:24;;;;;;;0.20;0.20;;;-1.40;99.90;;;;;;5055076;28;20025;-77
2023/04/02 03:45:03;;;;;;;0.20;0.20;;;-1.40;99.90;;;;;;5036765;28;20032;-77
2023/04/02 03:48:22;;;;;;;0.20;0.20;;;-1.40;99.90;;;;;;5054551;28;20017;-77
2023/04/02 03:50:59;;;;;;;0.20;0.20;;;-1.30;99.90;;;;;;4992294;28;20029;-77
2023/04/02 03:53:26;;;;;;;0.30;0.30;;;-1.30;99.90;;;;;;5047690;28;20071;-77
2023/04/02 03:55:53;;;;;;;0.30;0.30;;;-1.30;99.90;;;;;;5054467;28;20032;-78
2023/04/02 03:58:39;;;;;;;0.30;0.30;;;-1.20;99.90;;;;;;5054736;28;20040;-77
2023/04/02 04:01:30;;;;;;;0.20;0.20;;;-1.10;99.90;;;;;;5036487;28;20092;-77
2023/04/02 04:04:04;;;;;;;0.20;0.20;;;-1.10;99.90;;;;;;5054598;28;20017;-77
2023/04/02 04:06:33;;;;;;;0.20;0.20;;;-0.90;99.90;;;;;;5054158;28;20020;-77
2023/04/02 04:09:00;;;;;;;0.20;0.20;;;-0.90;99.90;;;;;;5054266;28;20082;-77
2023/04/02 04:11:36;;;;;;;0.20;0.20;;;-1.00;99.90;;;;;;5036684;28;20047;-77
2023/04/02 04:14:17;;;;;;;0.20;0.20;;;-1.10;99.90;;;;;;5054263;28;20397;-78
2023/04/02 04:16:52;;;;;;;0.20;0.20;;;-1.10;99.90;;;;;;5054206;28;20059;-77
2023/04/02 04:19:21;;;;;;;0.20;0.20;;;-1.10;99.90;;;;;;5036439;28;20141;-77
2023/04/02 04:21:47;;;;;;;0.20;0.20;;;-1.10;99.90;;;;;;5035834;28;20389;-78
2023/04/02 04:24:20;;;;;;;0.30;0.30;;;-1.20;99.90;;;;;;5036120;28;20028;-77
2023/04/02 04:27:02;;;;;;;0.20;0.20;;;-1.20;99.90;;;;;;5036244;28;20021;-77
2023/04/02 04:29:30;;;;;;;0.20;0.20;;;-1.30;99.90;;;;;;5053780;28;20028;-78
2023/04/02 04:32:07;;;;;;;0.20;0.20;;;-1.30;99.90;;;;;;5053516;28;20040;-78
2023/04/02 04:34:45;;;;;;;0.20;0.20;;;-1.20;99.90;;;;;;5036229;28;20071;-77
2023/04/02 04:37:20;;;;;;;0.20;0.20;;;-1.00;99.90;;;;;;5053870;28;20363;-77
2023/04/02 04:39:56;;;;;;;0.30;0.30;;;-0.90;99.90;;;;;;5034816;28;20037;-77
2023/04/02 04:42:26;;;;;;;0.20;0.20;;;-0.80;99.90;;;;;;5035375;28;20036;-78
2023/04/02 04:44:57;;;;;;;0.20;0.20;;;-0.80;99.90;;;;;;5035652;28;20486;-78
2023/04/02 04:47:32;;;;;;;0.20;0.20;;;-0.80;99.90;;;;;;5035935;28;20032;-77
2023/04/02 04:50:24;;;;;;;0.20;0.20;;;-0.80;99.90;;;;;;5053018;28;20025;-78
2023/04/02 04:52:49;;;;;;;0.20;0.20;;;-0.80;99.90;;;;;;5053425;28;20045;-77
2023/04/02 04:55:41;;;;;;;0.10;0.10;;;-0.90;99.90;;;;;;5053819;28;20056;-77
2023/04/02 04:58:20;;;;;;;0.20;0.20;;;-1.00;99.90;;;;;;5028892;28;20033;-77
2023/04/02 05:01:02;;;;;;;0.30;0.30;;;-1.00;99.90;;;;;;5052938;28;20025;-77
2023/04/02 05:03:54;;;;;;;0.20;0.20;;;-0.90;99.90;;;;;;5035520;28;20025;-77
2023/04/02 05:06:50;;;;;;;0.20;0.20;;;-0.90;99.90;;;;;;5035684;28;20039;-77
2023/04/02 05:09:22;;;;;;;0.25;0.25;;;-1.00;99.90;;;;;;5053428;28;20014;-77
2023/04/02 05:12:03;;;;;;;0.20;0.20;;;-0.90;99.90;;;;;;5035400;28;20025;-78
2023/04/02 05:14:53;;;;;;;0.17;0.17;;;-0.90;99.90;;;;;;5053494;28;20036;-77
2023/04/02 05:17:34;;;;;;;0.20;0.20;;;-0.90;99.90;;;;;;5022188;28;20147;-78
2023/04/02 05:20:26;;;;;;;0.17;0.17;;;-0.80;99.90;;;;;;5053560;28;20510;-78
2023/04/02 05:23:12;;;;;;;0.15;0.15;;;-0.80;99.90;;;;;;5028629;28;20075;-77
2023/04/02 05:25:55;;;;;;;0.20;0.20;;;-0.70;99.90;;;;;;5052776;28;20052;-78
2023/04/02 05:28:44;;;;;;;0.20;0.20;;;-0.70;99.90;;;;;;5035406;28;20021;-77
2023/04/02 05:31:24;;;;;;;0.20;0.20;;;-0.60;99.90;;;;;;5035586;28;20505;-78
2023/04/02 05:33:51;;;;;;;0.20;0.20;;;-0.60;99.90;;;;;;5053125;28;20025;-78
2023/04/02 05:36:20;;;;;;;0.17;0.17;;;-0.50;99.90;;;;;;5035071;28;20033;-77
2023/04/02 05:38:48;;;;;;;0.20;0.20;;;-0.50;99.90;;;;;;5053333;28;20033;-77
2023/04/02 05:41:23;;;;;;;0.20;0.20;;;-0.50;99.90;;;;;;5053180;28;20021;-78
2023/04/02 05:43:55;;;;;;;0.20;0.20;;;-0.50;99.90;;;;;;5053307;28;20028;-77
2023/04/02 05:46:26;;;;;;;0.20;0.20;;;-0.40;99.90;;;;;;5053274;28;20029;-78
2023/04/02 05:48:57;;;;;;;0.20;0.20;;;-0.30;99.90;;;;;;5032101;23;20406;-78
2023/04/02 05:51:42;;;;;;;0.10;0.10;;;-0.10;99.90;;;;;;5015182;28;20032;-77
2023/04/02 05:54:22;;;;;;;0.15;0.15;;;-0.10;99.90;;;;;;5019159;28;20033;-78
2023/04/02 05:56:55;;;;;;;0.20;0.20;;;0.10;99.90;;;;;;5019262;28;20565;-78
2023/04/02 05:59:32;;;;;;;0.20;0.20;;;0.20;99.90;;;;;;5024714;23;20091;-77
2023/04/02 06:02:06;;;;;;;0.17;0.17;;;0.20;99.90;;;;;;5017594;28;20479;-77
2023/04/02 06:04:54;;;;;;;0.20;0.20;;;0.40;99.90;;;;;;5017153;28;20095;-77
2023/04/02 06:07:28;;;;;;;0.10;0.10;;;0.60;99.90;;;;;;5017049;28;20052;-77
2023/04/02 06:10:07;;;;;;;0.20;0.20;;;0.60;99.90;;;;;;4999122;28;20022;-77
2023/04/02 06:12:43;;;;;;;0.13;0.13;;;0.80;99.90;;;;;;5017664;28;20153;-78
2023/04/02 06:15:16;;;;;;;0.10;0.10;;;0.90;99.90;;;;;;5015792;28;20107;-77
2023/04/02 06:17:57;;;;;;;0.13;0.13;;;1.10;99.90;;;;;;5017219;28;20165;-78
2023/04/02 06:20:23;;;;;;;0.20;0.20;;;1.20;99.90;;;;;;5019333;28;20022;-78
2023/04/02 06:23:23;;;;;;;0.20;0.20;;;1.40;99.90;;;;;;5037082;28;20453;-77
2023/04/02 06:25:58;;;;;;;0.20;0.20;;;1.60;99.90;;;;;;5037094;28;20368;-78
2023/04/02 06:28:30;;;;;;;0.20;0.20;;;1.70;99.90;;;;;;5038533;28;20080;-78
2023/04/02 06:31:01;;;;;;;0.20;0.20;;;1.90;99.90;;;;;;5038444;28;20014;-78
2023/04/02 06:33:27;;;;;;;0.20;0.20;;;2.00;99.90;;;;;;5036400;28;20079;-78
2023/04/02 06:35:54;;;;;;;0.20;0.20;;;2.10;99.90;;;;;;5035985;28;20033;-78
2023/04/02 06:38:25;;;;;;;0.20;0.20;;;2.20;99.90;;;;;;5017122;28;20520;-77
2023/04/02 06:40:58;;;;;;;0.10;0.10;;;2.40;99.90;;;;;;5017038;28;20117;-77
2023/04/02 06:43:32;;;;;;;0.20;0.20;;;2.40;99.90;;;;;;5016737;28;20398;-77
2023/04/02 06:46:01;;;;;;;0.13;0.13;;;2.60;99.90;;;;;;5017259;28;20088;-77
2023/04/02 06:48:28;;;;;;;0.20;0.20;;;2.70;99.90;;;;;;5033935;28;20040;-78
2023/04/02 06:51:00;;;;;;;0.20;0.20;;;2.80;99.90;;;;;;5038884;28;20021;-78
2023/04/02 06:53:35;;;;;;;0.20;0.20;;;3.00;99.90;;;;;;5038162;28;20120;-78
2023/04/02 06:56:27;;;;;;;0.30;0.30;;;3.10;99.90;;;;;;5039834;28;20025;-78
2023/04/02 06:58:53;;;;;;;0.22;0.22;;;3.30;99.90;;;;;;5042272;28;20075;-77
2023/04/02 07:01:24;;;;;;;0.10;0.10;;;3.40;99.90;;;;;;5038756;28;20089;-77
2023/04/02 07:03:50;;;;;;;0.20;0.20;;;3.40;99.90;;;;;;5021302;28;20053;-79
2023/04/02 07:06:18;;;;;;;0.20;0.20;;;3.50;99.90;;;;;;5037526;28;20395;-77
2023/04/02 07:08:44;;;;;;;0.20;0.20;;;3.70;99.90;;;;;;5075197;22;20039;-79
2023/04/02 07:11:20;;;;;;;0.20;0.20;;;3.80;99.90;;;;;;5061385;28;20021;-78
2023/04/02 07:13:45;;;;;;;0.10;0.10;;;3.90;99.90;;;;;;5062885;28;20421;-78
2023/04/02 07:16:17;;;;;;;0.20;0.20;;;4.10;99.90;;;;;;5061897;28;20029;-78
2023/04/02 07:18:43;;;;;;;0.13;0.13;;;4.20;99.90;;;;;;5062104;28;20063;-79
2023/04/02 07:21:09;;;;;;;0.30;0.30;;;4.30;99.90;;;;;;5062273;28;20028;-78
2023/04/02 07:23:35;;;;;;;0.22;0.22;;;4.30;99.90;;;;;;5043466;28;20025;-79
2023/04/02 07:26:01;;;;;;;0.30;0.30;;;4.40;99.90;;;;;;5041603;28;20539;-78
2023/04/02 07:28:27;;;;;;;0.20;0.20;;;4.50;99.90;;;;;;5049665;23;20129;-79
2023/04/02 07:30:53;;;;;;;0.20;0.20;;;4.70;99.90;;;;;;5002236;28;20057;-79
2023/04/02 07:33:22;;;;;;;0.10;0.10;;;4.70;99.90;;;;;;5019216;28;20030;-77
2023/04/02 07:35:56;;;;;;;0.20;0.20;;;4.80;99.90;;;;;;5019037;28;20054;-78
2023/04/02 07:38:29;;;;;;;0.20;0.20;;;5.00;99.90;;;;;;5006275;28;20027;-78
2023/04/02 07:40:54;;;;;;;0.28;0.28;;;5.30;99.90;;;;;;5019815;28;20026;-78
2023/04/02 07:43:20;;;;;;;0.30;0.30;;;5.20;99.90;;;;;;5038114;28;20025;-78
2023/04/02 07:45:46;;;;;;;0.20;0.20;;;5.20;99.90;;;;;;5037324;28;20025;-77
2023/04/02 07:48:13;;;;;;;0.20;0.20;;;5.30;99.90;;;;;;5037672;28;20536;-78
2023/04/02 07:50:39;;;;;;;0.20;0.20;;;5.40;99.90;;;;;;5037593;28;20090;-78
2023/04/02 07:53:05;;;;;;;0.30;0.30;;;5.50;99.90;;;;;;5037041;28;20418;-79
2023/04/02 07:55:31;;;;;;;0.20;0.20;;;5.70;99.90;;;;;;5037020;28;20028;-78
2023/04/02 07:57:58;;;;;;;0.22;0.22;;;5.90;99.90;;;;;;5020014;28;20042;-79
2023/04/02 08:00:27;;;;;;;0.15;0.15;;;5.90;99.90;;;;;;5017700;28;20021;-78
2023/04/02 08:02:55;;;;;;;0.20;0.20;;;6.00;99.90;;;;;;5017932;28;20022;-78
2023/04/02 08:05:21;;;;;;;0.20;0.20;;;6.10;99.90;;;;;;5012395;28;20032;-78
2023/04/02 08:07:54;;;;;;;0.20;0.20;;;6.20;99.90;;;;;;4999426;28;20026;-78
2023/04/02 08:10:20;;;;;;;0.28;0.28;;;6.30;99.90;;;;;;4997634;28;20122;-77
2023/04/02 08:12:48;;;;;;;0.20;0.20;;;6.40;99.90;;;;;;5011140;28;20029;-78
2023/04/02 08:15:14;;;;;;;0.20;0.20;;;6.50;99.90;;;;;;5002132;28;20404;-78
2023/04/02 08:17:41;;;;;;;0.30;0.30;;;6.60;99.90;;;;;;5001614;28;20030;-79
2023/04/02 08:20:16;;;;;;;0.30;0.30;;;6.70;99.90;;;;;;5071509;23;20044;-80
2023/04/02 08:22:43;;;;;;;0.20;0.20;;;6.80;99.90;;;;;;5015546;28;20100;-79
2023/04/02 08:25:09;;;;;;;0.20;0.20;;;7.00;99.90;;;;;;5034445;28;20037;-78
2023/04/02 08:27:35;;;;;;;0.30;0.30;;;7.00;99.90;;;;;;5025200;28;20021;-79
2023/04/02 08:30:00;;;;;;;0.20;0.20;;;7.20;99.90;;;;;;5025303;28;20475;-79
2023/04/02 08:32:27;;;;;;;0.20;0.20;;;7.30;99.90;;;;;;5033298;28;20103;-79
2023/04/02 08:34:53;;;;;;;0.30;0.30;;;7.30;99.90;;;;;;5030835;28;20031;-78
2023/04/02 08:37:19;;;;;;;0.30;0.30;;;7.40;99.90;;;;;;5035028;28;20104;-79
2023/04/02 08:39:45;;;;;;;0.20;0.20;;;7.50;99.90;;;;;;5033769;28;20032;-79
2023/04/02 08:42:29;;;;;;;0.20;0.20;;;7.50;99.90;;;;;;5014579;28;20026;-79
2023/04/02 08:45:13;;;;;;;;;;;7.70;99.90;;;;;;5012159;28;20371;-78
2023/04/02 08:47:40;;;;;;;0.30;0.30;;;7.80;99.90;;;;;;5027803;28;19909;-78
2023/04/02 08:50:31;;;;;;;0.20;0.20;;;7.70;99.90;;;;;;5026561;28;20030;-79
2023/04/02 08:53:01;;;;;;;0.20;0.20;;;7.70;99.90;;;;;;4993941;28;20038;-78
2023/04/02 08:56:05;;;;;;;0.20;0.20;;;7.70;99.90;;;;;;5011454;28;20446;-78
2023/04/02 08:58:40;;;;;;;0.20;0.20;;;7.90;99.90;;;;;;5012334;28;20040;-79
2023/04/02 09:01:19;;;;;;;0.20;0.20;;;7.90;99.90;;;;;;5030416;28;20026;-78
2023/04/02 09:03:48;;;;;;;0.20;0.20;;;8.00;99.90;;;;;;5029994;28;20029;-79
2023/04/02 09:06:17;;;;;;;0.20;0.20;;;7.90;99.90;;;;;;5026516;28;20439;-79
2023/04/02 09:08:48;;;;;;;0.20;0.20;;;8.10;99.90;;;;;;5029198;28;20471;-78
2023/04/02 09:11:40;;;;;;;0.20;0.20;;;8.30;99.90;;;;;;5028902;28;20044;-79
2023/04/02 09:14:14;;;;;;;0.20;0.20;;;8.40;99.90;;;;;;5013493;28;20037;-78
2023/04/02 09:16:48;;;;;;;0.20;0.20;;;8.40;99.90;;;;;;5031212;28;20030;-79
2023/04/02 09:19:20;;;;;;;0.20;0.20;;;8.60;99.90;;;;;;5031555;28;20029;-78
2023/04/02 09:22:06;;;;;;;0.30;0.30;;;8.70;99.90;;;;;;5020274;28;20030;-79
2023/04/02 09:24:36;;;;;;;0.20;0.20;;;9.10;99.90;;;;;;5011411;28;20040;-78
2023/04/02 09:27:17;;;;;;;0.20;0.20;;;9.10;99.90;;;;;;5018886;28;20075;-78
2023/04/02 09:29:44;;;;;;;0.20;0.20;;;9.00;99.90;;;;;;5078222;22;20049;-79
2023/04/02 09:32:43;;;;;;;0.20;0.20;;;9.00;99.90;;;;;;5035748;28;20025;-78
2023/04/02 09:35:16;;;;;;;0.20;0.20;;;9.10;99.90;;;;;;5054075;28;20040;-79
2023/04/02 09:37:42;;;;;;;0.20;0.20;;;8.90;99.90;;;;;;5040847;28;20021;-78
2023/04/02 09:40:31;;;;;;;0.20;0.20;;;8.90;99.90;;;;;;5043625;28;20033;-78
2023/04/02 09:43:14;;;;;;;0.20;0.20;;;9.20;99.90;;;;;;5004864;28;20509;-78
2023/04/02 09:45:41;;;;;;;0.20;0.20;;;9.30;99.90;;;;;;5037663;28;20033;-78
2023/04/02 09:48:31;;;;;;;0.30;0.30;;;9.10;99.90;;;;;;5053916;28;20436;-79
2023/04/02 09:51:26;;;;;;;0.30;0.30;;;8.90;99.90;;;;;;5036574;28;20082;-79
2023/04/02 09:54:00;;;;;;;0.20;0.20;;;8.80;99.90;;;;;;5053996;28;20029;-81
2023/04/02 09:56:26;;;;;;;0.28;0.28;;;9.10;99.90;;;;;;5028313;28;20026;-80
2023/04/02 09:59:14;;;;;;;0.20;0.20;;;9.30;99.90;;;;;;5036501;28;20021;-79
2023/04/02 10:01:55;;;;;;;0.10;0.10;;;9.50;99.90;;;;;;5023383;28;20030;-79
2023/04/02 10:04:43;;;;;;;0.20;0.20;;;9.60;99.90;;;;;;5041527;28;20029;-78
2023/04/02 10:07:40;;;;;;;0.20;0.20;;;9.80;99.90;;;;;;5057289;28;20044;-79
2023/04/02 10:10:21;;;;;;;0.20;0.20;;;9.90;99.90;;;;;;5037863;28;20025;-79
2023/04/02 10:13:03;;;;;;;0.20;0.20;;;10.00;99.90;;;;;;5037733;28;20025;-79
2023/04/02 10:15:39;;;;;;;0.20;0.20;;;10.10;99.90;;;;;;5037556;28;20021;-80
2023/04/02 10:18:43;;;;;;;0.20;0.20;;;10.20;99.90;;;;;;5028076;28;20108;-79
2023/04/02 10:21:17;;;;;;;0.20;0.20;;;10.20;99.90;;;;;;4977202;28;20034;-80
2023/04/02 10:23:42;;;;;;;;;;;10.30;99.90;;;;;;5011801;28;20483;-80
2023/04/02 10:26:40;;;;;;;0.20;0.20;;;10.70;99.90;;;;;;5029875;28;19905;-80
2023/04/02 10:29:11;;;;;;;0.20;0.20;;;11.00;99.90;;;;;;4997030;28;20080;-81
2023/04/02 10:31:58;;;;;;;0.20;0.20;;;10.90;99.90;;;;;;5012389;28;20030;-79
2023/04/02 10:34:55;;;;;;;0.15;0.15;;;10.80;99.90;;;;;;5058087;28;20364;-78
2023/04/02 10:37:24;;;;;;;0.20;0.20;;;10.70;99.90;;;;;;5036795;28;20087;-80
2023/04/02 10:39:55;;;;;;;0.20;0.20;;;10.80;99.90;;;;;;5059367;23;20419;-80
2023/04/02 10:43:01;;;;;;;0.20;0.20;;;10.80;99.90;;;;;;5026048;28;20166;-79
2023/04/02 10:46:04;;;;;;;0.20;0.20;;;11.20;99.90;;;;;;5037970;28;20036;-80
2023/04/02 10:49:17;;;;;;;0.30;0.30;;;11.30;99.90;;;;;;5039122;28;20383;-79
2023/04/02 10:51:57;;;;;;;0.28;0.28;;;11.30;99.90;;;;;;5036815;28;20064;-79
2023/04/02 10:54:51;;;;;;;0.13;0.13;;;11.20;99.90;;;;;;5034881;28;20028;-78
2023/04/02 10:57:21;;;;;;;;;;;11.20;99.90;;;;;;5051338;28;20482;-78
2023/04/02 10:59:53;;;;;;;0.20;0.20;;;11.30;99.90;;;;;;5050417;28;19913;-79
2023/04/02 11:02:30;;;;;;;0.20;0.20;;;11.40;99.90;;;;;;5047046;28;20052;-78
2023/04/02 11:05:02;;;;;;;0.20;0.20;;;11.10;99.90;;;;;;4993786;28;20030;-80
2023/04/02 11:07:33;;;;;;;0.20;0.20;;;11.60;99.90;;;;;;5000046;28;20105;-79
2023/04/02 11:10:00;;;;;;;0.20;0.20;;;11.60;99.90;;;;;;5015063;28;20030;-79
2023/04/02 11:12:40;;;;;;;0.13;0.13;;;11.50;99.90;;;;;;5006783;28;20018;-78
2023/04/02 11:15:15;;;;;;;0.15;0.15;;;11.80;99.90;;;;;;5030097;28;20042;-78
2023/04/02 11:17:42;;;;;;;0.20;0.20;;;11.90;99.90;;;;;;4996014;28;20037;-79
2023/04/02 11:20:45;;;;;;;0.15;0.15;;;11.90;99.90;;;;;;5013161;28;20023;-78
2023/04/02 11:23:13;;;;;;;0.20;0.20;;;12.10;99.90;;;;;;5033847;28;20026;-79
2023/04/02 11:25:40;;;;;;;0.13;0.13;;;12.20;99.90;;;;;;5032198;28;20041;-78
2023/04/02 11:28:32;;;;;;;0.20;0.20;;;12.40;99.90;;;;;;5013515;28;20030;-79
2023/04/02 11:30:58;;;;;;;0.20;0.20;;;12.10;99.90;;;;;;5014315;28;20045;-79
2023/04/02 11:33:29;;;;;;;0.20;0.20;;;12.10;99.90;;;;;;5038356;28;20025;-78
2023/04/02 11:35:55;;;;;;;0.15;0.15;;;12.50;99.90;;;;;;5047736;28;20107;-79
2023/04/02 11:38:27;;;;;;;0.30;0.30;;;12.60;99.90;;;;;;5045024;28;20026;-78
2023/04/02 11:40:54;;;;;;;0.20;0.20;;;12.70;99.90;;;;;;5029843;28;20023;-78
2023/04/02 11:43:36;;;;;;;0.20;0.20;;;12.80;99.90;;;;;;5014879;28;20018;-78
2023/04/02 11:46:28;;;;;;;0.20;0.20;;;13.00;99.90;;;;;;5006756;28;20085;-78
2023/04/02 11:49:34;;;;;;;0.17;0.17;;;13.30;99.90;;;;;;5007558;28;20026;-78
2023/04/02 11:52:00;;;;;;;0.20;0.20;;;13.50;99.90;;;;;;5014646;28;20049;-78
2023/04/02 11:54:29;;;;;;;0.20;0.20;;;14.00;99.90;;;;;;5031472;28;20482;-78
2023/04/02 11:57:19;;;;;;;0.13;0.13;;;14.20;99.90;;;;;;5028440;28;20033;-77
2023/04/02 12:00:00;;;;;;;0.10;0.10;;;14.30;99.90;;;;;;4999667;28;20022;-77
2023/04/02 12:02:38;;;;;;;0.20;0.20;;;14.30;99.90;;;;;;5016693;28;20391;-77
2023/04/02 12:05:38;;;;;;;0.10;0.10;;;14.10;99.90;;;;;;4998842;28;20030;-77
2023/04/02 12:08:36;;;;;;;0.10;0.10;;;14.20;99.90;;;;;;5022121;22;20108;-77
2023/04/02 12:11:02;;;;;;;0.10;0.10;;;14.60;99.90;;;;;;5016686;28;20487;-77
2023/04/02 12:13:40;;;;;;;0.20;0.20;;;14.40;96.60;;;;;;5017971;28;20037;-77
2023/04/02 12:16:11;;;;;;;0.10;0.10;;;14.80;98.00;;;;;;4995643;28;20026;-77
2023/04/02 12:18:46;;;;;;;0.10;0.10;;;15.00;94.30;;;;;;5000153;28;20125;-77
2023/04/02 12:21:17;;;;;;;0.17;0.17;;;14.80;93.30;;;;;;5017707;28;20026;-77
2023/04/02 12:23:46;;;;;;;0.20;0.20;;;15.00;92.20;;;;;;5015983;28;20052;-79
2023/04/02 12:26:37;;;;;;;0.15;0.15;;;15.30;93.60;;;;;;5015629;28;20033;-80
2023/04/02 12:29:26;;;;;;;0.10;0.10;;;15.70;92.70;;;;;;5014627;28;20487;-79
2023/04/02 12:31:56;;;;;;;0.10;0.10;;;15.80;94.30;;;;;;5015573;28;20396;-79
2023/04/02 12:34:25;;;;;;;0.10;0.10;;;16.10;92.30;;;;;;5015515;28;20033;-79
2023/04/02 12:37:04;;;;;;;0.10;0.10;;;16.40;92.50;;;;;;4999129;28;20450;-80
2023/04/02 12:39:31;;;;;;;0.03;0.03;;;16.30;90.50;;;;;;5016409;28;20100;-79
2023/04/02 12:42:13;;;;;;;0.17;0.17;;;16.20;83.00;;;;;;5034700;28;20030;-79
2023/04/02 12:44:48;;;;;;;0.10;0.10;;;16.00;85.40;;;;;;5014734;28;20060;-79
2023/04/02 12:47:13;;;;;;;0.10;0.10;;;16.10;87.20;;;;;;5017135;28;20116;-79
2023/04/02 12:49:43;;;;;;;0.10;0.10;;;15.90;82.40;;;;;;5034537;28;20068;-79
2023/04/02 12:52:14;;;;;;;0.10;0.10;;;15.80;80.50;;;;;;5034216;28;20009;-80
2023/04/02 12:54:49;;;;;;;0.10;0.10;;;16.10;84.10;;;;;;5035052;28;20478;-80
2023/04/02 12:57:24;;;;;;;0.10;0.10;;;16.10;82.90;;;;;;5035146;28;20021;-80
2023/04/02 12:59:50;;;;;;;0.10;0.10;;;16.60;81.80;;;;;;5016215;28;20025;-78
2023/04/02 13:02:24;;;;;;;0.10;0.10;;;16.00;79.70;;;;;;5016494;28;20022;-79
2023/04/02 13:05:03;;;;;;;0.10;0.10;;;15.80;84.20;;;;;;5017315;28;20025;-78
2023/04/02 13:07:31;;;;;;;0.10;0.10;;;15.80;75.90;;;;;;5016955;28;20028;-79
2023/04/02 13:10:07;;;;;;;0.10;0.10;;;15.30;78.10;;;;;;5017258;28;20036;-79
2023/04/02 13:12:37;;;;;;;0.10;0.10;;;15.30;82.90;;;;;;5033660;28;20060;-79
2023/04/02 13:15:30;;;;;;;0.10;0.10;;;15.30;84.90;;;;;;5017805;28;20097;-80
2023/04/02 13:20:43;;;;;;;0.10;0.10;;;15.70;78.00;;;;;;5078115;22;20080;-79
2023/04/02 13:23:27;;;;;;;0.15;0.15;;;16.10;81.40;;;;;;5030589;28;20021;-77
2023/04/02 13:25:54;;;;;;;0.10;0.10;;;15.90;81.50;;;;;;5057969;28;20067;-77
2023/04/02 13:28:20;;;;;;;0.10;0.10;;;16.10;80.10;;;;;;5057923;28;20040;-78
2023/04/02 13:30:46;;;;;;;0.10;0.10;;;16.00;82.30;;;;;;5040651;28;20033;-79
2023/04/02 13:33:13;;;;;;;0.10;0.10;;;16.00;78.60;;;;;;5054914;28;20025;-77
2023/04/02 13:35:39;;;;;;;0.10;0.10;;;16.00;77.40;;;;;;5017949;28;20163;-78